Due to severe server failure at the provider, not all demo sites are operational. Will take some days to rebuilt everything.

Demonstration site - Click on the  for more information

This is an optional block. Switch it on/off in your settings-file: $SITE['bannerTop'] = false; or $SITE['bannerBottom'] = false;

You can display ads, any other important text or photo’s using text / html or PHP code.

You can place one or more at the top and or bottom and it can all be different for content / size .



Visit our other weather sites:

Template documentation
and downloads

And another site



Nearby METAR Reports

   
EBAW - Antwerp
Updated: 23-10-2020 07:50
Fog, Mostly Cloudy  
Fog, Mostly Cloudy  
   Wind: East 1.9 km/h
Wind: East 1.9 km/h
Temperature: 9°C
Dew Point: 9°C
Humidity: 100%
Barometer: 1010 hPa
Clouds: Mostly Cloudy
Visibility: 1 km
Cloud details: Mostly Cloudy 100 ft
EBAW 230550Z 08001KT 0800 R11/1300N R29/1000N FG BKN001 09/09 Q1010 NOSIG
EBLG - Liège
Updated: 23-10-2020 07:50
Light Showers, Rain, Mostly Cloudy  
Light Showers, Rain, Mostly Cloudy  
   Wind: SW 16.7 km/h
Wind: SW 16.7 km/h
Temperature: 14°C
Dew Point: 13°C
Humidity: 94%
Barometer: 1011 hPa
Clouds: Mostly Cloudy
Visibility: 5 km
Cloud details: Partly Cloudy 800 ft,
Mostly Cloudy 1400 ft
EBLG 230550Z 22009KT 5000 -SHRA SCT008 BKN014TCU 14/13 Q1011 TEMPO 4000 SHRA
EBCV - Mons/Bergen
Updated: 23-10-2020 07:25
Mist, Mostly Cloudy  
Mist, Mostly Cloudy  
   Wind: South 5.6 km/h
Wind: South 5.6 km/h
Temperature: 13°C
Dew Point: 13°C
Humidity: 100%
Barometer: 1010 hPa
Clouds: Mostly Cloudy
Visibility: 5 km
Cloud details: Mostly Cloudy 800 ft
EBCV 230525Z AUTO 18003KT 5000 BR BKN008/// 13/13 Q1010 GRN
EHBK - Maastricht
Updated: 23-10-2020 07:55
Light Showers, Rain, Mostly Cloudy  
Light Showers, Rain, Mostly Cloudy  
   Wind: South 3.7 km/h
Wind: South 3.7 km/h
Temperature: 14°C
Dew Point: 14°C
Humidity: 100%
Barometer: 1010 hPa
Clouds: Mostly Cloudy
Visibility: 2 km
Cloud details: Few Clouds 700 ft,
Partly Cloudy 800 ft,
Mostly Cloudy 900 ft,
Few Clouds 1500 ft
EHBK 230555Z AUTO 17002KT 2200 -SHRA FEW007 SCT008 BKN009 FEW015CB 14/14 Q1010 TEMPO 6000 BKN012
ELLX - Luxemburg
Updated: 23-10-2020 07:50
Mist, Mostly Cloudy  
Mist, Mostly Cloudy  
   Wind: SSW 11.1 km/h
Wind: SSW 11.1 km/h
Temperature: 13°C
Dew Point: 12°C
Humidity: 94%
Barometer: 1012 hPa
Clouds: Mostly Cloudy
Visibility: 1 km
Cloud details: Mostly Cloudy 0 ft,
Mostly Cloudy 100 ft
ELLX 230550Z 21006KT 170V240 1200 R24/1200VP2000U BR BKN000 BKN001 13/12 Q1012 BECMG 2000
EBOS - Oostende
Updated: 23-10-2020 07:50
Fog, Mostly Cloudy  
Fog, Mostly Cloudy  
   Wind: SSE 5.6 km/h
Wind: SSE 5.6 km/h
Temperature: 9°C
Wind Chill: 8°C
Dew Point: 9°C
Humidity: 100%
Barometer: 1010 hPa
Clouds: Mostly Cloudy
Visibility: 0 km
Cloud details: Mostly Cloudy 100 ft
EBOS 230550Z 16003KT 130V190 0200 R08/0550N R26/0600N FG BKN001 09/09 Q1010 NOSIG

Script developed by  Saratoga-weather.org Adapted for the template by  Weerstation Leuven

You find our weather info also at:

FRWN

Equipment we use:

Provider
Robohost

Robohost

This is an optional block. Switch it on/off in your settings-file: $SITE['bannerTop'] = false; or $SITE['bannerBottom'] = false;

You can display ads, any other important text or photo’s using text / html or PHP code.

You can place one or more at the top and or bottom and it can all be different for content / size .